Ansonia, Ohio
Current Conditions -  °F | °C
As of 2:55 PM on Friday 31 Oct 2014 (Local Time) from KVES Reporting Station
Moderate Rain Moderate Rain  
Wind Chill: 32°   Ceiling: 1500
Heat Index: 39°   Visibility: 10mi
Dew Point: 37°   Wind: 12mph
Humidity: 93%   Direction: 360°N
Pressure: 29.9"   Gusts: 16mph
Location:  40.21°N, 84.64°W
Report Text: KVES 311855Z AUTO 36010G14KT 10SM RA OVC015 04/03 A2990 RMK AO2 P0001
Loading
Personal Weather Stations






























Interactive Weather Map
Tropical Storm Tracking
New forecast layout! Learn more

10-Day Weather Forecast

Advertisements
Track Severe Weather on mobile